Valor — WDD8691 — position and weather

sailwx.info

Track history (hours):
 
Tides and Currents Weather Stations Pressure Air Temp Water Temp Dewpoint Dewpoint Depression Visibility Wind Speed Wind Dir Waves Ship Positions

Valor

Owner: Crowley Marine Services, Inc., Seattle, WA. More information available from US FCC via Universal Licensing System and Coast Guard Vessel Documentation Center.

Last reported at 2014-Dec-22 23:33 UTC. Time now 2014-Dec-23 00:05 UTC.
Position N 37°48' W 122°19'.

Length 8 m; draft 5.5 m.

Type: Tug. MMSI: 367301480.

Date/timePositionNaut miles runAvg speedWind from/ knotsBaromVisibWave heightAir tempDewpointWater temp
2014-Dec-22 23:33N 37°48' W 122°19'2 1.5
2014-Dec-22 22:33N 37°49' W 122°19'0 0.0
2014-Dec-22 21:33N 37°49' W 122°19'0 0.0
2014-Dec-22 20:33N 37°49' W 122°19'0 0.0
2014-Dec-22 19:33N 37°49' W 122°19'0 0.0
2014-Dec-22 18:33N 37°49' W 122°19'0 0.0
2014-Dec-22 17:33N 37°49' W 122°19'0 0.0
2014-Dec-22 16:33N 37°49' W 122°19'0 0.0
2014-Dec-22 15:33N 37°49' W 122°19'0 0.0
2014-Dec-22 14:33N 37°49' W 122°19'0 0.0
2014-Dec-22 13:33N 37°49' W 122°19'0 0.0
2014-Dec-22 12:33N 37°49' W 122°19'0 0.0
2014-Dec-22 11:33N 37°49' W 122°19'0 0.0
2014-Dec-22 10:33N 37°49' W 122°19'0 0.0
2014-Dec-22 09:33N 37°49' W 122°19'0 0.0
2014-Dec-22 08:33N 37°49' W 122°19'0 0.0
2014-Dec-22 07:33N 37°49' W 122°19'0 0.0
2014-Dec-22 06:33N 37°49' W 122°19'0 0.0
2014-Dec-22 05:33N 37°49' W 122°19'0 0.0
2014-Dec-22 04:33N 37°49' W 122°19'0 0.0
2014-Dec-22 03:33N 37°49' W 122°19'0 0.0
2014-Dec-22 02:33N 37°49' W 122°19'1 1.1
2014-Dec-22 01:33N 37°49' W 122°20'3 3.0
2014-Dec-22 00:33N 37°48' W 122°24'0 0.3
2014-Dec-21 23:33N 37°48' W 122°24'1 1.3
2014-Dec-21 22:33N 37°49' W 122°24'1110.9
2014-Dec-21 21:33N 38°00' W 122°24'11 0.7
2014-Dec-21 06:21N 38°03' W 122°11'3 2.6
2014-Dec-21 05:18N 38°04' W 122°14'0 0.0
2014-Dec-20 18:33N 38°04' W 122°15'1 0.8
2014-Dec-20 17:33N 38°03' W 122°16'0 0.3
2014-Dec-20 16:33N 38°04' W 122°15'6 6.2
2014-Dec-20 15:33N 38°02' W 122°23'9 8.9
2014-Dec-20 14:34N 37°53' W 122°26'9 8.8
2014-Dec-20 13:33N 37°45' W 122°21'0 0.2
2014-Dec-20 12:33N 37°45' W 122°21'3 3.1
2014-Dec-20 11:33N 37°48' W 122°21'9 9.1
2014-Dec-20 10:33N 37°56' W 122°26'10 9.5
2014-Dec-20 09:33N 38°03' W 122°17'5 1.7
2014-Dec-20 06:33N 38°03' W 122°11'9 8.1
2014-Dec-20 05:27N 38°02' W 122°22'9 9.7
2014-Dec-20 04:33N 37°54' W 122°26'6 6.2
2014-Dec-20 03:33N 37°49' W 122°30'4 3.6
2014-Dec-20 02:33N 37°49' W 122°25'4 4.3
2014-Dec-20 01:33N 37°49' W 122°20'0 0.0
2014-Dec-20 00:33N 37°49' W 122°20'0 0.0
2014-Dec-19 23:33N 37°49' W 122°20'0 0.0
2014-Dec-19 22:33N 37°49' W 122°20'0 0.3
2014-Dec-19 21:34N 37°49' W 122°20'1 0.9
2014-Dec-19 20:33N 37°49' W 122°19'0 0.0
2014-Dec-19 19:33N 37°49' W 122°19'0 0.0
2014-Dec-19 18:33N 37°49' W 122°19'3 2.7
2014-Dec-19 17:33N 37°48' W 122°21'3 2.7
2014-Dec-19 16:34N 37°49' W 122°19'0 0.0
2014-Dec-19 15:33N 37°49' W 122°19'0 0.0
2014-Dec-19 14:34N 37°49' W 122°19'0 0.0
2014-Dec-19 13:33N 37°49' W 122°19'0 0.0
2014-Dec-19 12:33N 37°49' W 122°19'0 0.0
2014-Dec-19 11:33N 37°49' W 122°19'0 0.0
2014-Dec-19 10:34N 37°49' W 122°19'0 0.0
2014-Dec-19 09:33N 37°49' W 122°19'0 0.0
2014-Dec-19 08:33N 37°49' W 122°19'0 0.0
2014-Dec-19 07:33N 37°49' W 122°19'2 1.9
2014-Dec-19 06:33N 37°48' W 122°21'2 1.5
2014-Dec-19 05:34N 37°49' W 122°19'0 0.4
2014-Dec-19 04:34N 37°49' W 122°19'0 0.0
2014-Dec-19 03:33N 37°49' W 122°19'0 0.0
2014-Dec-19 02:33N 37°49' W 122°19'0 0.0
2014-Dec-19 01:33N 37°49' W 122°19'2 1.7
2014-Dec-19 00:33N 37°48' W 122°18'1 0.6
2014-Dec-18 23:33N 37°48' W 122°18'4 3.8
2014-Dec-18 22:33N 37°48' W 122°22'1 1.2
2014-Dec-18 21:33N 37°48' W 122°24'0 0.0
2014-Dec-18 20:33N 37°48' W 122°24'2 2.3
2014-Dec-18 19:34N 37°46' W 122°23'0 0.1
2014-Dec-18 18:34N 37°46' W 122°23'2 1.9
2014-Dec-18 17:33N 37°48' W 122°22'3 2.9
2014-Dec-18 16:33N 37°49' W 122°19'0 0.0
2014-Dec-18 15:33N 37°49' W 122°19'0 0.0
2014-Dec-18 14:34N 37°49' W 122°19'1 1.0
2014-Dec-18 13:33N 37°49' W 122°20'2 2.0
2014-Dec-18 12:33N 37°47' W 122°22'3 3.0
2014-Dec-18 11:33N 37°49' W 122°19'0 0.0
2014-Dec-18 10:33N 37°49' W 122°19'0 0.0
2014-Dec-18 09:34N 37°49' W 122°19'0 0.0
2014-Dec-18 08:33N 37°49' W 122°19'0 0.0
2014-Dec-18 07:34N 37°49' W 122°19'0 0.0
2014-Dec-18 06:34N 37°49' W 122°19'0 0.0
2014-Dec-18 05:34N 37°49' W 122°19'8 8.3
2014-Dec-18 04:33N 37°49' W 122°29'2 2.3
2014-Dec-18 03:34N 37°51' W 122°27'5 4.9
2014-Dec-18 02:33N 37°55' W 122°25'0 0.2
2014-Dec-18 01:34N 37°55' W 122°25'0 0.0
2014-Dec-18 00:34N 37°55' W 122°25'3 2.6
2014-Dec-17 23:33N 37°53' W 122°24'7 6.6
2014-Dec-17 22:33N 37°48' W 122°19'1 1.1
2014-Dec-17 21:33N 37°48' W 122°18'3 2.7
2014-Dec-17 20:33N 37°48' W 122°21'2 2.2
2014-Dec-17 19:33N 37°49' W 122°19'0 0.0
2014-Dec-17 18:33N 37°49' W 122°19'7 7.3
2014-Dec-17 17:33N 37°54' W 122°25'9 8.5
2014-Dec-17 16:33N 38°02' W 122°21'8 8.0
2014-Dec-17 15:30N 38°03' W 122°10'1 0.1
2014-Dec-17 04:32N 38°02' W 122°09'1 0.0
2014-Dec-16 14:30N 38°02' W 122°08'0 0.1
2014-Dec-16 10:24N 38°02' W 122°08'0 0.4
2014-Dec-16 09:33N 38°02' W 122°08'1 0.7
2014-Dec-16 08:34N 38°02' W 122°09'12 1.5
2014-Dec-16 00:06N 38°00' W 122°24'4 6.8
2014-Dec-15 23:34N 37°57' W 122°26'2 1.5
2014-Dec-15 22:34N 37°56' W 122°25'0 0.2
2014-Dec-15 21:33N 37°55' W 122°25'8 7.7
2014-Dec-15 20:33N 38°02' W 122°21'5 1.0
2014-Dec-15 15:33N 38°04' W 122°14'7 3.6
2014-Dec-15 13:33N 38°01' W 122°23'6 6.5
2014-Dec-15 12:33N 37°55' W 122°22'0 0.0
2014-Dec-15 11:34N 37°55' W 122°22'0 0.1
2014-Dec-15 10:34N 37°55' W 122°22'0 0.0
2014-Dec-15 09:33N 37°55' W 122°22'0 0.0
2014-Dec-15 08:33N 37°55' W 122°22'0 0.0
2014-Dec-15 07:34N 37°55' W 122°22'0 0.0
2014-Dec-15 06:33N 37°55' W 122°22'1 0.7
2014-Dec-15 05:33N 37°54' W 122°22'1 0.8
2014-Dec-15 04:33N 37°55' W 122°22'0 0.0
2014-Dec-15 03:34N 37°55' W 122°22'5 4.9
2014-Dec-15 02:34N 37°58' W 122°26'9 8.5
2014-Dec-15 01:28N 38°03' W 122°16'1 0.8
2014-Dec-15 00:33N 38°04' W 122°17'2 0.2
2014-Dec-14 15:25N 38°03' W 122°15'6 2.9
2014-Dec-14 13:24N 38°02' W 122°08'3 2.7
2014-Dec-14 12:24N 38°03' W 122°11'3 3.7
2014-Dec-14 11:31N 38°04' W 122°15'0 0.1
2014-Dec-14 10:33N 38°04' W 122°15'0 0.2
2014-Dec-14 09:34N 38°04' W 122°14'1 1.2
2014-Dec-14 08:34N 38°04' W 122°16'1 1.0
2014-Dec-14 07:31N 38°03' W 122°15'0 0.0
2014-Dec-14 06:11N 38°03' W 122°15'3 4.1
2014-Dec-14 05:33N 38°03' W 122°18'8 8.2
2014-Dec-14 04:33N 37°58' W 122°26'4 4.5
2014-Dec-14 03:33N 37°55' W 122°22'1 0.8
2014-Dec-14 02:34N 37°54' W 122°23'2 1.8
2014-Dec-14 01:34N 37°55' W 122°25'0 0.1
2014-Dec-14 00:33N 37°55' W 122°25'0 0.0
2014-Dec-13 23:33N 37°55' W 122°25'0 0.0
2014-Dec-13 22:34N 37°55' W 122°25'7 7.4
2014-Dec-13 21:34N 37°48' W 122°21'2 1.9
2014-Dec-13 20:34N 37°49' W 122°19'0 0.0
2014-Dec-13 19:33N 37°49' W 122°19'0 0.0
2014-Dec-13 18:34N 37°49' W 122°19'0 0.0
2014-Dec-13 17:34N 37°49' W 122°19'0 0.0
2014-Dec-13 16:33N 37°49' W 122°19'0 0.0
2014-Dec-13 15:34N 37°49' W 122°19'0 0.0
2014-Dec-13 14:33N 37°49' W 122°19'0 0.0
2014-Dec-13 13:33N 37°49' W 122°19'1 0.8
2014-Dec-13 12:33N 37°49' W 122°19'0 0.1
2014-Dec-13 11:33N 37°49' W 122°20'3 2.8
2014-Dec-13 10:33N 37°50' W 122°22'5 5.2
2014-Dec-13 09:34N 37°55' W 122°25'2 2.1
2014-Dec-13 08:34N 37°53' W 122°26'6 6.0
2014-Dec-13 07:33N 37°49' W 122°31'3 3.3
2014-Dec-13 06:33N 37°49' W 122°27'3 2.6
2014-Dec-13 05:33N 37°48' W 122°24'0 0.0
2014-Dec-13 04:33N 37°48' W 122°24'0 0.0
2014-Dec-13 03:33N 37°48' W 122°24'0 0.0
2014-Dec-13 02:33N 37°48' W 122°24'0 0.0
2014-Dec-13 01:33N 37°48' W 122°24'0 0.0
2014-Dec-13 00:33N 37°48' W 122°24'4 4.4
2014-Dec-12 23:33N 37°49' W 122°29'  
Track history (hours):
 
Tides and Currents Weather Stations Pressure Air Temp Water Temp Dewpoint Dewpoint Depression Visibility Wind Speed Wind Dir Waves Ship Positions

Valor

Owner: Crowley Marine Services, Inc., Seattle, WA. More information available from US FCC via Universal Licensing System and Coast Guard Vessel Documentation Center.

Last reported at 2014-Dec-22 23:33 UTC. Time now 2014-Dec-23 00:05 UTC.
Position N 37°48' W 122°19'.

Length 8 m; draft 5.5 m.

Type: Tug. MMSI: 367301480.

Date/timePositionNaut miles runAvg speedWind from/ knotsBaromVisibWave heightAir tempDewpointWater temp
2014-Dec-22 23:33N 37°48' W 122°19'2 1.5
2014-Dec-22 22:33N 37°49' W 122°19'0 0.0
2014-Dec-22 21:33N 37°49' W 122°19'0 0.0
2014-Dec-22 20:33N 37°49' W 122°19'0 0.0
2014-Dec-22 19:33N 37°49' W 122°19'0 0.0
2014-Dec-22 18:33N 37°49' W 122°19'0 0.0
2014-Dec-22 17:33N 37°49' W 122°19'0 0.0
2014-Dec-22 16:33N 37°49' W 122°19'0 0.0
2014-Dec-22 15:33N 37°49' W 122°19'0 0.0
2014-Dec-22 14:33N 37°49' W 122°19'0 0.0
2014-Dec-22 13:33N 37°49' W 122°19'0 0.0
2014-Dec-22 12:33N 37°49' W 122°19'0 0.0
2014-Dec-22 11:33N 37°49' W 122°19'0 0.0
2014-Dec-22 10:33N 37°49' W 122°19'0 0.0
2014-Dec-22 09:33N 37°49' W 122°19'0 0.0
2014-Dec-22 08:33N 37°49' W 122°19'0 0.0
2014-Dec-22 07:33N 37°49' W 122°19'0 0.0
2014-Dec-22 06:33N 37°49' W 122°19'0 0.0
2014-Dec-22 05:33N 37°49' W 122°19'0 0.0
2014-Dec-22 04:33N 37°49' W 122°19'0 0.0
2014-Dec-22 03:33N 37°49' W 122°19'0 0.0
2014-Dec-22 02:33N 37°49' W 122°19'1 1.1
2014-Dec-22 01:33N 37°49' W 122°20'3 3.0
2014-Dec-22 00:33N 37°48' W 122°24'0 0.3
2014-Dec-21 23:33N 37°48' W 122°24'1 1.3
2014-Dec-21 22:33N 37°49' W 122°24'1110.9
2014-Dec-21 21:33N 38°00' W 122°24'11 0.7
2014-Dec-21 06:21N 38°03' W 122°11'3 2.6
2014-Dec-21 05:18N 38°04' W 122°14'0 0.0
2014-Dec-20 18:33N 38°04' W 122°15'1 0.8
2014-Dec-20 17:33N 38°03' W 122°16'0 0.3
2014-Dec-20 16:33N 38°04' W 122°15'6 6.2
2014-Dec-20 15:33N 38°02' W 122°23'9 8.9
2014-Dec-20 14:34N 37°53' W 122°26'9 8.8
2014-Dec-20 13:33N 37°45' W 122°21'0 0.2
2014-Dec-20 12:33N 37°45' W 122°21'3 3.1
2014-Dec-20 11:33N 37°48' W 122°21'9 9.1
2014-Dec-20 10:33N 37°56' W 122°26'10 9.5
2014-Dec-20 09:33N 38°03' W 122°17'5 1.7
2014-Dec-20 06:33N 38°03' W 122°11'9 8.1
2014-Dec-20 05:27N 38°02' W 122°22'9 9.7
2014-Dec-20 04:33N 37°54' W 122°26'6 6.2
2014-Dec-20 03:33N 37°49' W 122°30'4 3.6
2014-Dec-20 02:33N 37°49' W 122°25'4 4.3
2014-Dec-20 01:33N 37°49' W 122°20'0 0.0
2014-Dec-20 00:33N 37°49' W 122°20'0 0.0
2014-Dec-19 23:33N 37°49' W 122°20'0 0.0
2014-Dec-19 22:33N 37°49' W 122°20'0 0.3
2014-Dec-19 21:34N 37°49' W 122°20'1 0.9
2014-Dec-19 20:33N 37°49' W 122°19'0 0.0
2014-Dec-19 19:33N 37°49' W 122°19'0 0.0
2014-Dec-19 18:33N 37°49' W 122°19'3 2.7
2014-Dec-19 17:33N 37°48' W 122°21'3 2.7
2014-Dec-19 16:34N 37°49' W 122°19'0 0.0
2014-Dec-19 15:33N 37°49' W 122°19'0 0.0
2014-Dec-19 14:34N 37°49' W 122°19'0 0.0
2014-Dec-19 13:33N 37°49' W 122°19'0 0.0
2014-Dec-19 12:33N 37°49' W 122°19'0 0.0
2014-Dec-19 11:33N 37°49' W 122°19'0 0.0
2014-Dec-19 10:34N 37°49' W 122°19'0 0.0
2014-Dec-19 09:33N 37°49' W 122°19'0 0.0
2014-Dec-19 08:33N 37°49' W 122°19'0 0.0
2014-Dec-19 07:33N 37°49' W 122°19'2 1.9
2014-Dec-19 06:33N 37°48' W 122°21'2 1.5
2014-Dec-19 05:34N 37°49' W 122°19'0 0.4
2014-Dec-19 04:34N 37°49' W 122°19'0 0.0
2014-Dec-19 03:33N 37°49' W 122°19'0 0.0
2014-Dec-19 02:33N 37°49' W 122°19'0 0.0
2014-Dec-19 01:33N 37°49' W 122°19'2 1.7
2014-Dec-19 00:33N 37°48' W 122°18'1 0.6
2014-Dec-18 23:33N 37°48' W 122°18'4 3.8
2014-Dec-18 22:33N 37°48' W 122°22'1 1.2
2014-Dec-18 21:33N 37°48' W 122°24'0 0.0
2014-Dec-18 20:33N 37°48' W 122°24'2 2.3
2014-Dec-18 19:34N 37°46' W 122°23'0 0.1
2014-Dec-18 18:34N 37°46' W 122°23'2 1.9
2014-Dec-18 17:33N 37°48' W 122°22'3 2.9
2014-Dec-18 16:33N 37°49' W 122°19'0 0.0
2014-Dec-18 15:33N 37°49' W 122°19'0 0.0
2014-Dec-18 14:34N 37°49' W 122°19'1 1.0
2014-Dec-18 13:33N 37°49' W 122°20'2 2.0
2014-Dec-18 12:33N 37°47' W 122°22'3 3.0
2014-Dec-18 11:33N 37°49' W 122°19'0 0.0
2014-Dec-18 10:33N 37°49' W 122°19'0 0.0
2014-Dec-18 09:34N 37°49' W 122°19'0 0.0
2014-Dec-18 08:33N 37°49' W 122°19'0 0.0
2014-Dec-18 07:34N 37°49' W 122°19'0 0.0
2014-Dec-18 06:34N 37°49' W 122°19'0 0.0
2014-Dec-18 05:34N 37°49' W 122°19'8 8.3
2014-Dec-18 04:33N 37°49' W 122°29'2 2.3
2014-Dec-18 03:34N 37°51' W 122°27'5 4.9
2014-Dec-18 02:33N 37°55' W 122°25'0 0.2
2014-Dec-18 01:34N 37°55' W 122°25'0 0.0
2014-Dec-18 00:34N 37°55' W 122°25'3 2.6
2014-Dec-17 23:33N 37°53' W 122°24'7 6.6
2014-Dec-17 22:33N 37°48' W 122°19'1 1.1
2014-Dec-17 21:33N 37°48' W 122°18'3 2.7
2014-Dec-17 20:33N 37°48' W 122°21'2 2.2
2014-Dec-17 19:33N 37°49' W 122°19'0 0.0
2014-Dec-17 18:33N 37°49' W 122°19'7 7.3
2014-Dec-17 17:33N 37°54' W 122°25'9 8.5
2014-Dec-17 16:33N 38°02' W 122°21'8 8.0
2014-Dec-17 15:30N 38°03' W 122°10'1 0.1
2014-Dec-17 04:32N 38°02' W 122°09'1 0.0
2014-Dec-16 14:30N 38°02' W 122°08'0 0.1
2014-Dec-16 10:24N 38°02' W 122°08'0 0.4
2014-Dec-16 09:33N 38°02' W 122°08'1 0.7
2014-Dec-16 08:34N 38°02' W 122°09'12 1.5
2014-Dec-16 00:06N 38°00' W 122°24'4 6.8
2014-Dec-15 23:34N 37°57' W 122°26'2 1.5
2014-Dec-15 22:34N 37°56' W 122°25'0 0.2
2014-Dec-15 21:33N 37°55' W 122°25'8 7.7
2014-Dec-15 20:33N 38°02' W 122°21'5 1.0
2014-Dec-15 15:33N 38°04' W 122°14'7 3.6
2014-Dec-15 13:33N 38°01' W 122°23'6 6.5
2014-Dec-15 12:33N 37°55' W 122°22'0 0.0
2014-Dec-15 11:34N 37°55' W 122°22'0 0.1
2014-Dec-15 10:34N 37°55' W 122°22'0 0.0
2014-Dec-15 09:33N 37°55' W 122°22'0 0.0
2014-Dec-15 08:33N 37°55' W 122°22'0 0.0
2014-Dec-15 07:34N 37°55' W 122°22'0 0.0
2014-Dec-15 06:33N 37°55' W 122°22'1 0.7
2014-Dec-15 05:33N 37°54' W 122°22'1 0.8
2014-Dec-15 04:33N 37°55' W 122°22'0 0.0
2014-Dec-15 03:34N 37°55' W 122°22'5 4.9
2014-Dec-15 02:34N 37°58' W 122°26'9 8.5
2014-Dec-15 01:28N 38°03' W 122°16'1 0.8
2014-Dec-15 00:33N 38°04' W 122°17'2 0.2
2014-Dec-14 15:25N 38°03' W 122°15'6 2.9
2014-Dec-14 13:24N 38°02' W 122°08'3 2.7
2014-Dec-14 12:24N 38°03' W 122°11'3 3.7
2014-Dec-14 11:31N 38°04' W 122°15'0 0.1
2014-Dec-14 10:33N 38°04' W 122°15'0 0.2
2014-Dec-14 09:34N 38°04' W 122°14'1 1.2
2014-Dec-14 08:34N 38°04' W 122°16'1 1.0
2014-Dec-14 07:31N 38°03' W 122°15'0 0.0
2014-Dec-14 06:11N 38°03' W 122°15'3 4.1
2014-Dec-14 05:33N 38°03' W 122°18'8 8.2
2014-Dec-14 04:33N 37°58' W 122°26'4 4.5
2014-Dec-14 03:33N 37°55' W 122°22'1 0.8
2014-Dec-14 02:34N 37°54' W 122°23'2 1.8
2014-Dec-14 01:34N 37°55' W 122°25'0 0.1
2014-Dec-14 00:33N 37°55' W 122°25'0 0.0
2014-Dec-13 23:33N 37°55' W 122°25'0 0.0
2014-Dec-13 22:34N 37°55' W 122°25'7 7.4
2014-Dec-13 21:34N 37°48' W 122°21'2 1.9
2014-Dec-13 20:34N 37°49' W 122°19'0 0.0
2014-Dec-13 19:33N 37°49' W 122°19'0 0.0
2014-Dec-13 18:34N 37°49' W 122°19'0 0.0
2014-Dec-13 17:34N 37°49' W 122°19'0 0.0
2014-Dec-13 16:33N 37°49' W 122°19'0 0.0
2014-Dec-13 15:34N 37°49' W 122°19'0 0.0
2014-Dec-13 14:33N 37°49' W 122°19'0 0.0
2014-Dec-13 13:33N 37°49' W 122°19'1 0.8
2014-Dec-13 12:33N 37°49' W 122°19'0 0.1
2014-Dec-13 11:33N 37°49' W 122°20'3 2.8
2014-Dec-13 10:33N 37°50' W 122°22'5 5.2
2014-Dec-13 09:34N 37°55' W 122°25'2 2.1
2014-Dec-13 08:34N 37°53' W 122°26'6 6.0
2014-Dec-13 07:33N 37°49' W 122°31'3 3.3
2014-Dec-13 06:33N 37°49' W 122°27'3 2.6
2014-Dec-13 05:33N 37°48' W 122°24'0 0.0
2014-Dec-13 04:33N 37°48' W 122°24'0 0.0
2014-Dec-13 03:33N 37°48' W 122°24'0 0.0
2014-Dec-13 02:33N 37°48' W 122°24'0 0.0
2014-Dec-13 01:33N 37°48' W 122°24'0 0.0
2014-Dec-13 00:33N 37°48' W 122°24'4 4.4
2014-Dec-12 23:33N 37°49' W 122°29'  

Dump ship's entire track history